sensor_id;sensor_type;location;lat;lon;timestamp;P1;durP1;ratioP1;P2;durP2;ratioP2
74892;SDS011;63446;56.272;43.922;2022-11-15T00:00:51;4.32;;;0.35;;
74892;SDS011;63446;56.272;43.922;2022-11-15T00:03:37;5.97;;;0.68;;
74892;SDS011;63446;56.272;43.922;2022-11-15T00:06:21;5.43;;;0.50;;
74892;SDS011;63446;56.272;43.922;2022-11-15T00:09:05;4.33;;;1.10;;
74892;SDS011;63446;56.272;43.922;2022-11-15T00:11:50;6.45;;;0.82;;
74892;SDS011;63446;56.272;43.922;2022-11-15T00:14:36;5.07;;;0.57;;
74892;SDS011;63446;56.272;43.922;2022-11-15T00:17:20;3.65;;;0.47;;
74892;SDS011;63446;56.272;43.922;2022-11-15T00:20:06;4.15;;;0.77;;
74892;SDS011;63446;56.272;43.922;2022-11-15T00:22:50;4.10;;;0.50;;
74892;SDS011;63446;56.272;43.922;2022-11-15T00:25:35;5.80;;;0.40;;
74892;SDS011;63446;56.272;43.922;2022-11-15T00:28:19;9.35;;;0.75;;
74892;SDS011;63446;56.272;43.922;2022-11-15T00:31:05;5.05;;;0.38;;
74892;SDS011;63446;56.272;43.922;2022-11-15T00:33:57;5.13;;;0.68;;
74892;SDS011;63446;56.272;43.922;2022-11-15T00:36:42;3.83;;;0.30;;
74892;SDS011;63446;56.272;43.922;2022-11-15T00:39:27;4.00;;;0.32;;
74892;SDS011;63446;56.272;43.922;2022-11-15T00:42:11;2.22;;;0.30;;
74892;SDS011;63446;56.272;43.922;2022-11-15T00:44:55;4.03;;;0.50;;
74892;SDS011;63446;56.272;43.922;2022-11-15T00:47:43;6.38;;;0.22;;
74892;SDS011;63446;56.272;43.922;2022-11-15T00:50:29;2.63;;;0.20;;
74892;SDS011;63446;56.272;43.922;2022-11-15T00:53:13;2.05;;;0.20;;
74892;SDS011;63446;56.272;43.922;2022-11-15T00:55:58;2.80;;;0.20;;
74892;SDS011;63446;56.272;43.922;2022-11-15T00:58:45;2.65;;;0.22;;
74892;SDS011;63446;56.272;43.922;2022-11-15T01:01:29;4.25;;;0.28;;
74892;SDS011;63446;56.272;43.922;2022-11-15T01:04:14;3.90;;;0.40;;
74892;SDS011;63446;56.272;43.922;2022-11-15T01:06:59;8.98;;;0.63;;
74892;SDS011;63446;56.272;43.922;2022-11-15T01:09:44;5.20;;;0.32;;
74892;SDS011;63446;56.272;43.922;2022-11-15T01:12:29;3.75;;;0.40;;
74892;SDS011;63446;56.272;43.922;2022-11-15T01:15:14;5.03;;;0.40;;
74892;SDS011;63446;56.272;43.922;2022-11-15T01:17:58;3.50;;;0.20;;
74892;SDS011;63446;56.272;43.922;2022-11-15T01:20:43;2.35;;;0.20;;
74892;SDS011;63446;56.272;43.922;2022-11-15T01:23:27;5.20;;;0.40;;
74892;SDS011;63446;56.272;43.922;2022-11-15T01:26:13;3.75;;;0.50;;
74892;SDS011;63446;56.272;43.922;2022-11-15T01:28:59;2.30;;;0.20;;
74892;SDS011;63446;56.272;43.922;2022-11-15T01:31:47;2.70;;;0.20;;
74892;SDS011;63446;56.272;43.922;2022-11-15T01:34:31;2.15;;;0.20;;
74892;SDS011;63446;56.272;43.922;2022-11-15T01:37:15;2.75;;;0.30;;
74892;SDS011;63446;56.272;43.922;2022-11-15T01:40:00;2.58;;;0.20;;
74892;SDS011;63446;56.272;43.922;2022-11-15T01:42:44;2.45;;;0.70;;
74892;SDS011;63446;56.272;43.922;2022-11-15T01:45:28;2.47;;;0.23;;
74892;SDS011;63446;56.272;43.922;2022-11-15T01:48:14;2.22;;;0.20;;
74892;SDS011;63446;56.272;43.922;2022-11-15T01:51:02;2.85;;;0.20;;
74892;SDS011;63446;56.272;43.922;2022-11-15T01:53:52;1.80;;;0.20;;
74892;SDS011;63446;56.272;43.922;2022-11-15T01:56:46;1.73;;;0.20;;
74892;SDS011;63446;56.272;43.922;2022-11-15T01:59:39;2.83;;;0.30;;
74892;SDS011;63446;56.272;43.922;2022-11-15T02:02:28;2.63;;;0.30;;
74892;SDS011;63446;56.272;43.922;2022-11-15T02:05:13;4.00;;;0.40;;
74892;SDS011;63446;56.272;43.922;2022-11-15T02:07:58;2.03;;;0.35;;
74892;SDS011;63446;56.272;43.922;2022-11-15T02:10:45;4.18;;;0.40;;
74892;SDS011;63446;56.272;43.922;2022-11-15T02:13:31;4.77;;;0.30;;
74892;SDS011;63446;56.272;43.922;2022-11-15T02:16:38;4.97;;;0.50;;
74892;SDS011;63446;56.272;43.922;2022-11-15T02:28:44;2.93;;;0.40;;
74892;SDS011;63446;56.272;43.922;2022-11-15T02:38:04;4.93;;;0.60;;
74892;SDS011;63446;56.272;43.922;2022-11-15T02:41:13;4.15;;;0.50;;
74892;SDS011;63446;56.272;43.922;2022-11-15T02:44:23;5.13;;;0.40;;
74892;SDS011;63446;56.272;43.922;2022-11-15T02:47:10;5.60;;;0.77;;
74892;SDS011;63446;56.272;43.922;2022-11-15T02:50:03;4.47;;;0.80;;
74892;SDS011;63446;56.272;43.922;2022-11-15T02:52:52;4.95;;;0.88;;
74892;SDS011;63446;56.272;43.922;2022-11-15T02:55:37;7.53;;;1.20;;
74892;SDS011;63446;56.272;43.922;2022-11-15T03:01:57;4.20;;;0.70;;
74892;SDS011;63446;56.272;43.922;2022-11-15T03:05:07;5.63;;;0.90;;
74892;SDS011;63446;56.272;43.922;2022-11-15T03:11:09;2.92;;;0.45;;
74892;SDS011;63446;56.272;43.922;2022-11-15T03:20:04;8.05;;;0.90;;
74892;SDS011;63446;56.272;43.922;2022-11-15T03:22:50;7.80;;;0.88;;
74892;SDS011;63446;56.272;43.922;2022-11-15T03:25:38;5.82;;;0.98;;
74892;SDS011;63446;56.272;43.922;2022-11-15T03:28:30;6.57;;;0.80;;
74892;SDS011;63446;56.272;43.922;2022-11-15T03:31:21;8.95;;;0.77;;
74892;SDS011;63446;56.272;43.922;2022-11-15T03:37:40;10.82;;;1.73;;
74892;SDS011;63446;56.272;43.922;2022-11-15T03:43:28;4.93;;;0.70;;
74892;SDS011;63446;56.272;43.922;2022-11-15T03:46:14;6.60;;;1.20;;
74892;SDS011;63446;56.272;43.922;2022-11-15T03:49:06;3.90;;;0.75;;
74892;SDS011;63446;56.272;43.922;2022-11-15T03:51:56;5.85;;;1.15;;
74892;SDS011;63446;56.272;43.922;2022-11-15T03:54:55;7.43;;;0.90;;
74892;SDS011;63446;56.272;43.922;2022-11-15T03:57:40;5.40;;;0.80;;
74892;SDS011;63446;56.272;43.922;2022-11-15T04:00:26;4.47;;;1.25;;
74892;SDS011;63446;56.272;43.922;2022-11-15T04:03:11;7.35;;;0.75;;
74892;SDS011;63446;56.272;43.922;2022-11-15T04:05:55;4.97;;;0.90;;
74892;SDS011;63446;56.272;43.922;2022-11-15T04:08:39;4.63;;;0.70;;
74892;SDS011;63446;56.272;43.922;2022-11-15T04:11:23;5.23;;;0.73;;
74892;SDS011;63446;56.272;43.922;2022-11-15T04:14:08;5.72;;;0.90;;
74892;SDS011;63446;56.272;43.922;2022-11-15T04:16:53;5.82;;;0.80;;
74892;SDS011;63446;56.272;43.922;2022-11-15T04:19:37;7.22;;;1.02;;
74892;SDS011;63446;56.272;43.922;2022-11-15T04:22:54;6.93;;;0.63;;
74892;SDS011;63446;56.272;43.922;2022-11-15T04:25:59;9.47;;;0.80;;
74892;SDS011;63446;56.272;43.922;2022-11-15T04:28:55;4.30;;;0.93;;
74892;SDS011;63446;56.272;43.922;2022-11-15T04:31:58;10.38;;;1.20;;
74892;SDS011;63446;56.272;43.922;2022-11-15T04:34:43;6.95;;;0.77;;
74892;SDS011;63446;56.272;43.922;2022-11-15T04:37:28;4.38;;;0.90;;
74892;SDS011;63446;56.272;43.922;2022-11-15T04:40:13;6.50;;;1.03;;
74892;SDS011;63446;56.272;43.922;2022-11-15T04:42:57;7.30;;;0.70;;
74892;SDS011;63446;56.272;43.922;2022-11-15T04:45:42;6.72;;;0.88;;
74892;SDS011;63446;56.272;43.922;2022-11-15T04:48:27;6.60;;;0.90;;
74892;SDS011;63446;56.272;43.922;2022-11-15T04:51:11;9.18;;;0.85;;
74892;SDS011;63446;56.272;43.922;2022-11-15T04:53:55;5.33;;;0.97;;
74892;SDS011;63446;56.272;43.922;2022-11-15T04:56:40;6.65;;;1.10;;
74892;SDS011;63446;56.272;43.922;2022-11-15T04:59:24;6.90;;;1.70;;
74892;SDS011;63446;56.272;43.922;2022-11-15T05:02:09;6.47;;;1.23;;
74892;SDS011;63446;56.272;43.922;2022-11-15T05:04:54;5.45;;;1.50;;
74892;SDS011;63446;56.272;43.922;2022-11-15T05:07:38;8.13;;;1.53;;
74892;SDS011;63446;56.272;43.922;2022-11-15T05:10:23;8.45;;;1.80;;
74892;SDS011;63446;56.272;43.922;2022-11-15T05:13:07;5.80;;;1.33;;
74892;SDS011;63446;56.272;43.922;2022-11-15T05:15:52;10.05;;;1.63;;
74892;SDS011;63446;56.272;43.922;2022-11-15T05:18:36;10.15;;;1.70;;
74892;SDS011;63446;56.272;43.922;2022-11-15T05:21:24;11.07;;;1.30;;
74892;SDS011;63446;56.272;43.922;2022-11-15T05:24:09;10.95;;;1.67;;
74892;SDS011;63446;56.272;43.922;2022-11-15T05:26:55;9.02;;;1.33;;
74892;SDS011;63446;56.272;43.922;2022-11-15T05:29:39;10.10;;;1.40;;
74892;SDS011;63446;56.272;43.922;2022-11-15T05:32:25;7.63;;;1.45;;
74892;SDS011;63446;56.272;43.922;2022-11-15T05:35:12;10.37;;;1.97;;
74892;SDS011;63446;56.272;43.922;2022-11-15T05:38:03;9.57;;;2.15;;
74892;SDS011;63446;56.272;43.922;2022-11-15T05:40:47;10.48;;;2.38;;
74892;SDS011;63446;56.272;43.922;2022-11-15T05:43:32;6.63;;;1.92;;
74892;SDS011;63446;56.272;43.922;2022-11-15T05:46:19;6.03;;;1.35;;
74892;SDS011;63446;56.272;43.922;2022-11-15T05:49:04;8.43;;;1.30;;
74892;SDS011;63446;56.272;43.922;2022-11-15T05:51:54;5.15;;;1.48;;
74892;SDS011;63446;56.272;43.922;2022-11-15T05:54:39;8.45;;;1.20;;
74892;SDS011;63446;56.272;43.922;2022-11-15T05:57:24;5.82;;;1.65;;
74892;SDS011;63446;56.272;43.922;2022-11-15T06:00:09;9.68;;;2.17;;
74892;SDS011;63446;56.272;43.922;2022-11-15T06:02:54;9.13;;;1.30;;
74892;SDS011;63446;56.272;43.922;2022-11-15T06:05:40;6.70;;;1.20;;
74892;SDS011;63446;56.272;43.922;2022-11-15T06:08:25;7.85;;;1.55;;
74892;SDS011;63446;56.272;43.922;2022-11-15T06:11:09;9.55;;;1.65;;
74892;SDS011;63446;56.272;43.922;2022-11-15T06:13:54;14.07;;;1.90;;
74892;SDS011;63446;56.272;43.922;2022-11-15T06:16:41;11.87;;;1.80;;
74892;SDS011;63446;56.272;43.922;2022-11-15T06:19:26;12.57;;;2.15;;
74892;SDS011;63446;56.272;43.922;2022-11-15T06:22:11;6.70;;;1.90;;
74892;SDS011;63446;56.272;43.922;2022-11-15T06:24:56;10.85;;;2.03;;
74892;SDS011;63446;56.272;43.922;2022-11-15T06:27:41;8.63;;;2.58;;
74892;SDS011;63446;56.272;43.922;2022-11-15T06:30:25;8.37;;;2.43;;
74892;SDS011;63446;56.272;43.922;2022-11-15T06:33:11;12.40;;;2.88;;
74892;SDS011;63446;56.272;43.922;2022-11-15T06:35:55;12.98;;;3.20;;
74892;SDS011;63446;56.272;43.922;2022-11-15T06:38:44;11.52;;;2.90;;
74892;SDS011;63446;56.272;43.922;2022-11-15T06:41:28;14.02;;;3.13;;
74892;SDS011;63446;56.272;43.922;2022-11-15T06:44:13;9.93;;;3.30;;
74892;SDS011;63446;56.272;43.922;2022-11-15T06:46:58;12.23;;;3.28;;
74892;SDS011;63446;56.272;43.922;2022-11-15T06:49:43;13.82;;;3.83;;
74892;SDS011;63446;56.272;43.922;2022-11-15T06:52:28;16.08;;;3.40;;
74892;SDS011;63446;56.272;43.922;2022-11-15T06:55:16;5.78;;;1.13;;
74892;SDS011;63446;56.272;43.922;2022-11-15T06:58:01;7.63;;;1.13;;
74892;SDS011;63446;56.272;43.922;2022-11-15T07:00:46;5.90;;;1.00;;
74892;SDS011;63446;56.272;43.922;2022-11-15T07:03:33;7.72;;;0.80;;
74892;SDS011;63446;56.272;43.922;2022-11-15T07:06:19;4.43;;;0.60;;
74892;SDS011;63446;56.272;43.922;2022-11-15T07:09:03;22.00;;;2.72;;
74892;SDS011;63446;56.272;43.922;2022-11-15T07:11:48;9.67;;;1.70;;
74892;SDS011;63446;56.272;43.922;2022-11-15T07:14:32;3.88;;;0.70;;
74892;SDS011;63446;56.272;43.922;2022-11-15T07:17:17;6.15;;;0.50;;
74892;SDS011;63446;56.272;43.922;2022-11-15T07:20:02;4.38;;;0.80;;
74892;SDS011;63446;56.272;43.922;2022-11-15T07:22:47;4.60;;;0.73;;
74892;SDS011;63446;56.272;43.922;2022-11-15T07:25:31;13.77;;;2.50;;
74892;SDS011;63446;56.272;43.922;2022-11-15T07:28:16;4.22;;;0.95;;
74892;SDS011;63446;56.272;43.922;2022-11-15T07:31:02;6.55;;;0.82;;
74892;SDS011;63446;56.272;43.922;2022-11-15T07:33:48;4.63;;;0.90;;
74892;SDS011;63446;56.272;43.922;2022-11-15T07:36:32;8.50;;;1.00;;
74892;SDS011;63446;56.272;43.922;2022-11-15T07:39:17;5.93;;;1.10;;
74892;SDS011;63446;56.272;43.922;2022-11-15T07:42:02;5.55;;;1.10;;
74892;SDS011;63446;56.272;43.922;2022-11-15T07:45:06;7.80;;;1.58;;
74892;SDS011;63446;56.272;43.922;2022-11-15T07:47:51;7.97;;;2.17;;
74892;SDS011;63446;56.272;43.922;2022-11-15T07:50:36;10.93;;;2.50;;
74892;SDS011;63446;56.272;43.922;2022-11-15T07:53:25;6.17;;;1.57;;
74892;SDS011;63446;56.272;43.922;2022-11-15T07:56:10;12.15;;;2.00;;
74892;SDS011;63446;56.272;43.922;2022-11-15T07:58:55;4.88;;;1.60;;
74892;SDS011;63446;56.272;43.922;2022-11-15T08:01:39;16.92;;;1.83;;
74892;SDS011;63446;56.272;43.922;2022-11-15T08:04:24;13.15;;;1.88;;
74892;SDS011;63446;56.272;43.922;2022-11-15T08:07:09;8.20;;;1.50;;
74892;SDS011;63446;56.272;43.922;2022-11-15T08:09:53;4.35;;;1.30;;
74892;SDS011;63446;56.272;43.922;2022-11-15T08:12:39;10.25;;;1.60;;
74892;SDS011;63446;56.272;43.922;2022-11-15T08:15:24;8.18;;;1.48;;
74892;SDS011;63446;56.272;43.922;2022-11-15T08:18:10;8.70;;;2.05;;
74892;SDS011;63446;56.272;43.922;2022-11-15T08:20:59;7.73;;;1.77;;
74892;SDS011;63446;56.272;43.922;2022-11-15T08:23:44;10.25;;;2.15;;
74892;SDS011;63446;56.272;43.922;2022-11-15T08:26:29;7.70;;;1.60;;
74892;SDS011;63446;56.272;43.922;2022-11-15T08:29:14;13.82;;;2.08;;
74892;SDS011;63446;56.272;43.922;2022-11-15T08:32:00;12.75;;;2.45;;
74892;SDS011;63446;56.272;43.922;2022-11-15T08:34:45;12.17;;;2.67;;
74892;SDS011;63446;56.272;43.922;2022-11-15T08:37:30;14.10;;;3.00;;
74892;SDS011;63446;56.272;43.922;2022-11-15T08:40:15;14.50;;;3.40;;
74892;SDS011;63446;56.272;43.922;2022-11-15T08:43:02;11.63;;;2.80;;
74892;SDS011;63446;56.272;43.922;2022-11-15T08:45:47;12.20;;;3.03;;
74892;SDS011;63446;56.272;43.922;2022-11-15T08:48:31;12.13;;;2.23;;
74892;SDS011;63446;56.272;43.922;2022-11-15T08:51:15;15.32;;;2.72;;
74892;SDS011;63446;56.272;43.922;2022-11-15T08:54:00;7.38;;;1.50;;
74892;SDS011;63446;56.272;43.922;2022-11-15T08:56:46;8.70;;;1.77;;
74892;SDS011;63446;56.272;43.922;2022-11-15T08:59:31;9.88;;;2.40;;
74892;SDS011;63446;56.272;43.922;2022-11-15T09:02:17;5.93;;;1.60;;
74892;SDS011;63446;56.272;43.922;2022-11-15T09:05:02;10.07;;;1.00;;
74892;SDS011;63446;56.272;43.922;2022-11-15T09:07:46;7.78;;;1.38;;
74892;SDS011;63446;56.272;43.922;2022-11-15T09:10:32;8.40;;;1.75;;
74892;SDS011;63446;56.272;43.922;2022-11-15T09:13:16;11.38;;;2.55;;
74892;SDS011;63446;56.272;43.922;2022-11-15T09:16:00;7.40;;;1.60;;
74892;SDS011;63446;56.272;43.922;2022-11-15T09:18:45;10.27;;;1.60;;
74892;SDS011;63446;56.272;43.922;2022-11-15T09:21:30;8.45;;;1.50;;
74892;SDS011;63446;56.272;43.922;2022-11-15T09:24:14;10.32;;;1.75;;
74892;SDS011;63446;56.272;43.922;2022-11-15T09:27:00;15.02;;;2.30;;
74892;SDS011;63446;56.272;43.922;2022-11-15T09:29:44;8.43;;;1.47;;
74892;SDS011;63446;56.272;43.922;2022-11-15T09:32:30;9.02;;;1.48;;
74892;SDS011;63446;56.272;43.922;2022-11-15T09:35:14;5.25;;;0.98;;
74892;SDS011;63446;56.272;43.922;2022-11-15T09:37:58;3.95;;;1.10;;
74892;SDS011;63446;56.272;43.922;2022-11-15T09:40:43;7.18;;;1.52;;
74892;SDS011;63446;56.272;43.922;2022-11-15T09:43:39;10.80;;;1.77;;
74892;SDS011;63446;56.272;43.922;2022-11-15T09:46:38;6.22;;;1.83;;
74892;SDS011;63446;56.272;43.922;2022-11-15T09:49:35;11.02;;;2.35;;
74892;SDS011;63446;56.272;43.922;2022-11-15T09:52:14;7.35;;;1.70;;
74892;SDS011;63446;56.272;43.922;2022-11-15T09:54:42;6.75;;;1.90;;
74892;SDS011;63446;56.272;43.922;2022-11-15T10:03:06;9.32;;;1.85;;
74892;SDS011;63446;56.272;43.922;2022-11-15T10:05:35;6.63;;;2.08;;
74892;SDS011;63446;56.272;43.922;2022-11-15T10:08:10;10.82;;;2.22;;
74892;SDS011;63446;56.272;43.922;2022-11-15T10:10:39;7.83;;;1.87;;
74892;SDS011;63446;56.272;43.922;2022-11-15T10:13:25;7.35;;;2.17;;
74892;SDS011;63446;56.272;43.922;2022-11-15T10:15:59;8.82;;;2.05;;
74892;SDS011;63446;56.272;43.922;2022-11-15T10:24:25;12.17;;;2.30;;
74892;SDS011;63446;56.272;43.922;2022-11-15T10:26:57;12.95;;;2.20;;
74892;SDS011;63446;56.272;43.922;2022-11-15T10:29:23;6.13;;;2.10;;
74892;SDS011;63446;56.272;43.922;2022-11-15T10:31:50;9.65;;;1.95;;
74892;SDS011;63446;56.272;43.922;2022-11-15T10:34:17;11.48;;;2.30;;
74892;SDS011;63446;56.272;43.922;2022-11-15T10:36:46;14.10;;;2.58;;
74892;SDS011;63446;56.272;43.922;2022-11-15T10:39:19;7.45;;;2.03;;
74892;SDS011;63446;56.272;43.922;2022-11-15T10:41:45;9.77;;;2.10;;
74892;SDS011;63446;56.272;43.922;2022-11-15T10:46:45;6.65;;;1.88;;
74892;SDS011;63446;56.272;43.922;2022-11-15T10:49:15;8.53;;;1.60;;
74892;SDS011;63446;56.272;43.922;2022-11-15T10:51:53;8.90;;;1.52;;
74892;SDS011;63446;56.272;43.922;2022-11-15T10:54:34;6.35;;;1.30;;
74892;SDS011;63446;56.272;43.922;2022-11-15T10:57:10;7.03;;;1.60;;
74892;SDS011;63446;56.272;43.922;2022-11-15T10:59:39;13.50;;;2.10;;
74892;SDS011;63446;56.272;43.922;2022-11-15T11:02:24;8.43;;;2.30;;
74892;SDS011;63446;56.272;43.922;2022-11-15T11:04:56;8.73;;;2.35;;
74892;SDS011;63446;56.272;43.922;2022-11-15T11:07:23;12.38;;;2.55;;
74892;SDS011;63446;56.272;43.922;2022-11-15T11:12:30;12.63;;;2.15;;
74892;SDS011;63446;56.272;43.922;2022-11-15T11:14:59;8.20;;;2.20;;
74892;SDS011;63446;56.272;43.922;2022-11-15T11:17:34;7.75;;;1.83;;
74892;SDS011;63446;56.272;43.922;2022-11-15T11:25:50;8.55;;;2.10;;
74892;SDS011;63446;56.272;43.922;2022-11-15T11:28:29;8.70;;;2.13;;
74892;SDS011;63446;56.272;43.922;2022-11-15T11:31:26;11.85;;;2.28;;
74892;SDS011;63446;56.272;43.922;2022-11-15T11:39:28;12.35;;;2.90;;
74892;SDS011;63446;56.272;43.922;2022-11-15T11:47:24;9.15;;;2.38;;
74892;SDS011;63446;56.272;43.922;2022-11-15T11:50:00;7.35;;;2.20;;
74892;SDS011;63446;56.272;43.922;2022-11-15T11:55:20;7.80;;;2.00;;
74892;SDS011;63446;56.272;43.922;2022-11-15T12:00:24;13.70;;;3.13;;
74892;SDS011;63446;56.272;43.922;2022-11-15T12:05:30;9.18;;;2.75;;
74892;SDS011;63446;56.272;43.922;2022-11-15T12:08:25;7.87;;;3.03;;
74892;SDS011;63446;56.272;43.922;2022-11-15T12:13:43;14.32;;;2.42;;
74892;SDS011;63446;56.272;43.922;2022-11-15T12:16:23;11.48;;;3.10;;
74892;SDS011;63446;56.272;43.922;2022-11-15T12:18:54;14.65;;;3.00;;
74892;SDS011;63446;56.272;43.922;2022-11-15T12:21:34;9.43;;;2.47;;
74892;SDS011;63446;56.272;43.922;2022-11-15T12:24:18;8.90;;;2.35;;
74892;SDS011;63446;56.272;43.922;2022-11-15T12:26:55;9.43;;;2.05;;
74892;SDS011;63446;56.272;43.922;2022-11-15T12:32:27;7.53;;;2.15;;
74892;SDS011;63446;56.272;43.922;2022-11-15T12:34:58;6.57;;;2.00;;
74892;SDS011;63446;56.272;43.922;2022-11-15T12:42:42;15.68;;;2.78;;
74892;SDS011;63446;56.272;43.922;2022-11-15T12:45:28;7.70;;;1.92;;
74892;SDS011;63446;56.272;43.922;2022-11-15T12:47:56;13.37;;;2.00;;
74892;SDS011;63446;56.272;43.922;2022-11-15T13:01:08;8.90;;;3.60;;
74892;SDS011;63446;56.272;43.922;2022-11-15T13:03:35;9.38;;;3.20;;
74892;SDS011;63446;56.272;43.922;2022-11-15T13:06:03;7.20;;;2.55;;
74892;SDS011;63446;56.272;43.922;2022-11-15T13:08:44;10.35;;;2.92;;
74892;SDS011;63446;56.272;43.922;2022-11-15T13:19:44;14.10;;;3.70;;
74892;SDS011;63446;56.272;43.922;2022-11-15T13:22:12;16.20;;;3.75;;
74892;SDS011;63446;56.272;43.922;2022-11-15T13:24:57;12.70;;;3.30;;
74892;SDS011;63446;56.272;43.922;2022-11-15T13:27:24;12.33;;;3.53;;
74892;SDS011;63446;56.272;43.922;2022-11-15T13:29:50;12.77;;;3.53;;
74892;SDS011;63446;56.272;43.922;2022-11-15T13:32:16;21.48;;;3.90;;
74892;SDS011;63446;56.272;43.922;2022-11-15T13:34:45;20.98;;;4.45;;
74892;SDS011;63446;56.272;43.922;2022-11-15T13:37:31;14.00;;;4.22;;
74892;SDS011;63446;56.272;43.922;2022-11-15T13:40:19;18.67;;;4.63;;
74892;SDS011;63446;56.272;43.922;2022-11-15T13:42:48;15.18;;;4.30;;
74892;SDS011;63446;56.272;43.922;2022-11-15T13:45:15;14.93;;;4.15;;
74892;SDS011;63446;56.272;43.922;2022-11-15T13:47:43;14.52;;;4.05;;
74892;SDS011;63446;56.272;43.922;2022-11-15T13:50:12;10.80;;;3.40;;
74892;SDS011;63446;56.272;43.922;2022-11-15T13:52:39;17.65;;;3.97;;
74892;SDS011;63446;56.272;43.922;2022-11-15T13:57:42;15.70;;;3.88;;
74892;SDS011;63446;56.272;43.922;2022-11-15T14:00:39;11.57;;;3.85;;
74892;SDS011;63446;56.272;43.922;2022-11-15T14:03:17;18.13;;;4.03;;
74892;SDS011;63446;56.272;43.922;2022-11-15T14:06:05;16.77;;;3.88;;
74892;SDS011;63446;56.272;43.922;2022-11-15T14:08:35;13.15;;;4.10;;
74892;SDS011;63446;56.272;43.922;2022-11-15T14:11:06;15.98;;;4.07;;
74892;SDS011;63446;56.272;43.922;2022-11-15T14:13:39;12.00;;;4.00;;
74892;SDS011;63446;56.272;43.922;2022-11-15T14:16:18;14.60;;;3.25;;
74892;SDS011;63446;56.272;43.922;2022-11-15T14:18:47;13.88;;;3.47;;
74892;SDS011;63446;56.272;43.922;2022-11-15T14:21:15;13.82;;;3.70;;
74892;SDS011;63446;56.272;43.922;2022-11-15T14:23:42;17.20;;;3.77;;
74892;SDS011;63446;56.272;43.922;2022-11-15T14:28:54;15.40;;;4.00;;
74892;SDS011;63446;56.272;43.922;2022-11-15T14:31:20;15.10;;;3.33;;
74892;SDS011;63446;56.272;43.922;2022-11-15T14:33:47;14.27;;;3.23;;
74892;SDS011;63446;56.272;43.922;2022-11-15T14:36:14;10.68;;;2.90;;
74892;SDS011;63446;56.272;43.922;2022-11-15T14:38:42;10.07;;;2.60;;
74892;SDS011;63446;56.272;43.922;2022-11-15T14:41:22;15.10;;;3.47;;
74892;SDS011;63446;56.272;43.922;2022-11-15T14:43:49;19.37;;;4.00;;
74892;SDS011;63446;56.272;43.922;2022-11-15T14:46:17;17.73;;;5.35;;
74892;SDS011;63446;56.272;43.922;2022-11-15T14:48:43;17.60;;;4.65;;
74892;SDS011;63446;56.272;43.922;2022-11-15T14:51:12;35.75;;;8.32;;
74892;SDS011;63446;56.272;43.922;2022-11-15T14:53:40;21.33;;;5.72;;
74892;SDS011;63446;56.272;43.922;2022-11-15T14:56:07;12.25;;;3.78;;
74892;SDS011;63446;56.272;43.922;2022-11-15T14:58:33;10.15;;;3.05;;
74892;SDS011;63446;56.272;43.922;2022-11-15T15:00:58;10.30;;;2.67;;
74892;SDS011;63446;56.272;43.922;2022-11-15T15:03:24;7.85;;;2.63;;
74892;SDS011;63446;56.272;43.922;2022-11-15T15:05:50;8.85;;;2.53;;
74892;SDS011;63446;56.272;43.922;2022-11-15T15:08:16;8.47;;;2.33;;
74892;SDS011;63446;56.272;43.922;2022-11-15T15:10:43;9.52;;;2.20;;
74892;SDS011;63446;56.272;43.922;2022-11-15T15:13:23;7.35;;;2.13;;
74892;SDS011;63446;56.272;43.922;2022-11-15T15:15:50;10.30;;;2.30;;
74892;SDS011;63446;56.272;43.922;2022-11-15T15:18:17;9.15;;;2.30;;
74892;SDS011;63446;56.272;43.922;2022-11-15T15:20:43;6.22;;;2.13;;
74892;SDS011;63446;56.272;43.922;2022-11-15T15:23:17;8.32;;;2.10;;
74892;SDS011;63446;56.272;43.922;2022-11-15T15:25:44;6.40;;;1.92;;
74892;SDS011;63446;56.272;43.922;2022-11-15T15:28:13;7.83;;;2.27;;
74892;SDS011;63446;56.272;43.922;2022-11-15T15:30:38;5.90;;;1.80;;
74892;SDS011;63446;56.272;43.922;2022-11-15T15:33:04;5.57;;;2.00;;
74892;SDS011;63446;56.272;43.922;2022-11-15T15:35:32;7.83;;;2.33;;
74892;SDS011;63446;56.272;43.922;2022-11-15T15:37:59;9.68;;;2.25;;
74892;SDS011;63446;56.272;43.922;2022-11-15T15:40:26;8.48;;;2.25;;
74892;SDS011;63446;56.272;43.922;2022-11-15T15:42:55;9.25;;;2.33;;
74892;SDS011;63446;56.272;43.922;2022-11-15T15:45:21;9.07;;;2.40;;
74892;SDS011;63446;56.272;43.922;2022-11-15T15:47:47;8.23;;;2.63;;
74892;SDS011;63446;56.272;43.922;2022-11-15T15:52:56;13.27;;;3.40;;
74892;SDS011;63446;56.272;43.922;2022-11-15T15:55:24;8.55;;;2.47;;
74892;SDS011;63446;56.272;43.922;2022-11-15T15:57:51;8.57;;;2.58;;
74892;SDS011;63446;56.272;43.922;2022-11-15T16:00:18;12.25;;;2.60;;
74892;SDS011;63446;56.272;43.922;2022-11-15T16:02:45;9.90;;;2.63;;
74892;SDS011;63446;56.272;43.922;2022-11-15T16:05:11;8.90;;;2.90;;
74892;SDS011;63446;56.272;43.922;2022-11-15T16:07:38;12.82;;;3.40;;
74892;SDS011;63446;56.272;43.922;2022-11-15T16:10:22;15.40;;;4.60;;
74892;SDS011;63446;56.272;43.922;2022-11-15T16:12:51;21.38;;;5.20;;
74892;SDS011;63446;56.272;43.922;2022-11-15T16:15:19;19.25;;;4.97;;
74892;SDS011;63446;56.272;43.922;2022-11-15T16:17:55;11.00;;;3.40;;
74892;SDS011;63446;56.272;43.922;2022-11-15T16:23:01;16.15;;;4.72;;
74892;SDS011;63446;56.272;43.922;2022-11-15T16:25:29;10.13;;;2.97;;
74892;SDS011;63446;56.272;43.922;2022-11-15T16:27:59;15.60;;;4.57;;
74892;SDS011;63446;56.272;43.922;2022-11-15T16:30:25;22.53;;;6.73;;
74892;SDS011;63446;56.272;43.922;2022-11-15T16:32:51;24.00;;;5.43;;
74892;SDS011;63446;56.272;43.922;2022-11-15T16:35:18;18.95;;;4.95;;
74892;SDS011;63446;56.272;43.922;2022-11-15T16:37:44;18.43;;;5.30;;
74892;SDS011;63446;56.272;43.922;2022-11-15T16:40:20;16.23;;;3.55;;
74892;SDS011;63446;56.272;43.922;2022-11-15T16:42:51;12.93;;;3.95;;
74892;SDS011;63446;56.272;43.922;2022-11-15T16:45:17;19.13;;;6.10;;
74892;SDS011;63446;56.272;43.922;2022-11-15T16:47:43;17.80;;;5.32;;
74892;SDS011;63446;56.272;43.922;2022-11-15T16:50:25;23.50;;;6.35;;
74892;SDS011;63446;56.272;43.922;2022-11-15T16:52:56;11.93;;;3.77;;
74892;SDS011;63446;56.272;43.922;2022-11-15T16:55:25;12.02;;;3.67;;
74892;SDS011;63446;56.272;43.922;2022-11-15T16:57:55;14.52;;;4.03;;
74892;SDS011;63446;56.272;43.922;2022-11-15T17:00:26;14.45;;;4.20;;
74892;SDS011;63446;56.272;43.922;2022-11-15T17:02:52;17.20;;;4.45;;
74892;SDS011;63446;56.272;43.922;2022-11-15T17:05:20;17.13;;;5.77;;
74892;SDS011;63446;56.272;43.922;2022-11-15T17:07:48;16.95;;;5.65;;
74892;SDS011;63446;56.272;43.922;2022-11-15T17:10:20;17.92;;;6.13;;
74892;SDS011;63446;56.272;43.922;2022-11-15T17:12:50;17.45;;;4.57;;
74892;SDS011;63446;56.272;43.922;2022-11-15T17:15:19;15.77;;;4.22;;
74892;SDS011;63446;56.272;43.922;2022-11-15T17:17:49;18.73;;;5.50;;
74892;SDS011;63446;56.272;43.922;2022-11-15T17:20:18;18.83;;;5.60;;
74892;SDS011;63446;56.272;43.922;2022-11-15T17:22:47;14.27;;;5.35;;
74892;SDS011;63446;56.272;43.922;2022-11-15T17:25:13;15.05;;;4.70;;
74892;SDS011;63446;56.272;43.922;2022-11-15T17:27:39;22.05;;;5.25;;
74892;SDS011;63446;56.272;43.922;2022-11-15T17:30:05;11.40;;;4.43;;
74892;SDS011;63446;56.272;43.922;2022-11-15T17:32:34;12.70;;;4.05;;
74892;SDS011;63446;56.272;43.922;2022-11-15T17:35:02;18.85;;;5.00;;
74892;SDS011;63446;56.272;43.922;2022-11-15T17:37:33;12.93;;;3.95;;
74892;SDS011;63446;56.272;43.922;2022-11-15T17:39:59;15.82;;;4.50;;